createdAt,value
2019-05-10T00:00:42.480Z,11.50
2019-05-10T00:03:30.149Z,11.50
2019-05-10T00:06:18.012Z,11.50
2019-05-10T00:08:47.376Z,11.50
2019-05-10T00:11:27.356Z,11.50
2019-05-10T00:13:58.767Z,11.50
2019-05-10T00:16:28.641Z,11.50
2019-05-10T00:18:58.424Z,11.40
2019-05-10T00:21:28.228Z,11.40
2019-05-10T00:23:58.004Z,11.40
2019-05-10T00:26:27.950Z,11.40
2019-05-10T00:28:57.726Z,11.40
2019-05-10T00:31:27.520Z,11.50
2019-05-10T00:33:57.311Z,11.40
2019-05-10T00:36:27.152Z,11.40
2019-05-10T00:38:56.983Z,11.40
2019-05-10T00:41:26.865Z,11.40
2019-05-10T00:43:56.676Z,11.40
2019-05-10T00:46:26.447Z,11.30
2019-05-10T00:48:56.242Z,11.30
2019-05-10T00:51:26.013Z,11.40
2019-05-10T00:53:55.804Z,11.40
2019-05-10T00:56:25.578Z,11.40
2019-05-10T00:58:55.380Z,11.40
2019-05-10T01:01:25.166Z,11.40
2019-05-10T01:03:54.962Z,11.40
2019-05-10T01:06:25.720Z,11.30
2019-05-10T01:08:55.508Z,11.30
2019-05-10T01:11:25.290Z,11.30
2019-05-10T01:13:55.082Z,11.30
2019-05-10T01:16:24.868Z,11.30
2019-05-10T01:18:54.657Z,11.30
2019-05-10T01:21:24.453Z,11.30
2019-05-10T01:23:54.244Z,11.30
2019-05-10T01:26:25.100Z,11.20
2019-05-10T01:28:54.900Z,11.20
2019-05-10T01:31:24.678Z,11.30
2019-05-10T01:33:54.480Z,11.30
2019-05-10T01:36:24.348Z,11.30
2019-05-10T01:38:54.114Z,11.30
2019-05-10T01:41:23.916Z,11.30
2019-05-10T01:43:53.693Z,11.30
2019-05-10T01:46:23.556Z,11.30
2019-05-10T01:48:53.356Z,11.30
2019-05-10T01:51:23.144Z,11.30
2019-05-10T01:53:52.928Z,11.30
2019-05-10T01:56:22.722Z,11.30
2019-05-10T01:58:52.577Z,11.30
2019-05-10T02:01:22.366Z,11.30
2019-05-10T02:03:52.152Z,11.30
2019-05-10T02:06:21.933Z,11.30
2019-05-10T02:08:51.782Z,11.30
2019-05-10T02:11:21.590Z,11.30
2019-05-10T02:13:51.367Z,11.30
2019-05-10T02:16:22.145Z,11.30
2019-05-10T02:18:51.920Z,11.30
2019-05-10T02:21:21.723Z,11.30
2019-05-10T02:23:51.498Z,11.30
2019-05-10T02:26:21.282Z,11.30
2019-05-10T02:28:51.077Z,11.30
2019-05-10T02:31:21.915Z,11.30
2019-05-10T02:33:52.014Z,11.30
2019-05-10T02:36:21.873Z,11.30
2019-05-10T02:38:51.665Z,11.20
2019-05-10T02:41:21.460Z,11.20
2019-05-10T02:43:51.401Z,11.20
2019-05-10T02:46:22.236Z,11.20
2019-05-10T02:48:53.105Z,11.10
2019-05-10T02:51:22.892Z,11.20
2019-05-10T02:53:53.123Z,11.10
2019-05-10T02:56:30.493Z,11.20
2019-05-10T02:58:57.007Z,11.20
2019-05-10T03:01:29.879Z,11.10
2019-05-10T03:04:01.762Z,11.10
2019-05-10T03:06:33.909Z,11.10
2019-05-10T03:09:06.409Z,11.10
2019-05-10T03:11:47.324Z,11.10
2019-05-10T03:14:18.875Z,11.10
2019-05-10T03:16:52.211Z,11.10
2019-05-10T03:19:22.412Z,11.10
2019-05-10T03:22:07.863Z,11.10
2019-05-10T03:24:37.648Z,11.10
2019-05-10T03:27:07.428Z,11.10
2019-05-10T03:29:37.224Z,11.10
2019-05-10T03:32:06.999Z,11.00
2019-05-10T03:34:36.861Z,11.00
2019-05-10T03:37:06.641Z,11.00
2019-05-10T03:39:36.450Z,11.10
2019-05-10T03:42:06.278Z,11.10
2019-05-10T03:44:36.088Z,11.10
2019-05-10T03:47:05.874Z,11.10
2019-05-10T03:49:35.677Z,11.00
2019-05-10T03:52:05.542Z,11.00
2019-05-10T03:54:35.336Z,10.90
2019-05-10T03:57:13.166Z,10.90
2019-05-10T03:59:36.751Z,10.90
2019-05-10T04:02:06.581Z,10.80
2019-05-10T04:04:36.358Z,10.70
2019-05-10T04:07:06.165Z,10.70
2019-05-10T04:09:36.030Z,10.70
2019-05-10T04:12:05.818Z,10.80
2019-05-10T04:14:35.618Z,10.70
2019-05-10T04:17:05.438Z,10.70
2019-05-10T04:19:35.213Z,10.70
2019-05-10T04:22:05.006Z,10.70
2019-05-10T04:24:36.434Z,10.80
2019-05-10T04:27:06.288Z,10.80
2019-05-10T04:29:36.140Z,10.80
2019-05-10T04:32:06.014Z,10.80
2019-05-10T04:34:35.806Z,10.80
2019-05-10T04:37:05.605Z,10.80
2019-05-10T04:39:35.380Z,10.80
2019-05-10T04:42:05.194Z,10.80
2019-05-10T04:44:35.004Z,10.80
2019-05-10T04:47:04.811Z,10.90
2019-05-10T04:49:34.596Z,10.80
2019-05-10T04:52:04.465Z,10.90
2019-05-10T04:54:34.246Z,10.90
2019-05-10T04:57:05.092Z,10.90
2019-05-10T04:59:35.857Z,10.90
2019-05-10T05:02:05.641Z,10.90
2019-05-10T05:04:35.441Z,10.80
2019-05-10T05:07:05.235Z,10.80
2019-05-10T05:09:35.091Z,10.90
2019-05-10T05:12:05.061Z,10.90
2019-05-10T05:14:34.855Z,10.90
2019-05-10T05:17:05.079Z,10.90
2019-05-10T05:19:34.886Z,10.90
2019-05-10T05:22:04.791Z,10.90
2019-05-10T05:24:34.578Z,10.90
2019-05-10T05:27:04.419Z,10.90
2019-05-10T05:29:34.496Z,11.00
2019-05-10T05:32:04.373Z,11.00
2019-05-10T05:34:34.176Z,11.00
2019-05-10T05:37:04.095Z,11.10
2019-05-10T05:39:33.882Z,11.10
2019-05-10T05:42:03.671Z,11.10
2019-05-10T05:44:33.474Z,11.10
2019-05-10T05:47:04.821Z,11.10
2019-05-10T05:49:34.961Z,11.10
2019-05-10T05:52:04.828Z,11.10
2019-05-10T05:54:34.603Z,11.10
2019-05-10T05:57:04.390Z,11.10
2019-05-10T05:59:34.189Z,11.10
2019-05-10T06:02:07.634Z,11.20
2019-05-10T06:04:35.595Z,11.20
2019-05-10T06:07:05.484Z,11.20
2019-05-10T06:09:38.019Z,11.30
2019-05-10T06:12:07.449Z,11.30
2019-05-10T06:14:43.080Z,11.30
2019-05-10T06:17:09.750Z,11.30
2019-05-10T06:19:39.529Z,11.30
2019-05-10T06:22:09.325Z,11.40
2019-05-10T06:24:39.133Z,11.30
2019-05-10T06:27:08.931Z,11.30
2019-05-10T06:29:38.719Z,11.30
2019-05-10T06:32:08.511Z,11.30
2019-05-10T06:34:40.246Z,11.30
2019-05-10T06:37:10.223Z,11.30
2019-05-10T06:39:40.024Z,11.30
2019-05-10T06:42:09.803Z,11.30
2019-05-10T06:44:39.592Z,11.40
2019-05-10T06:47:11.309Z,11.40
2019-05-10T06:49:50.201Z,11.40
2019-05-10T06:52:15.894Z,11.40
2019-05-10T06:54:43.919Z,11.40
2019-05-10T06:57:17.536Z,11.40
2019-05-10T06:59:45.545Z,11.40
2019-05-10T07:02:20.085Z,11.30
2019-05-10T07:04:46.817Z,11.40
2019-05-10T07:07:32.928Z,11.40
2019-05-10T07:10:03.774Z,11.40
2019-05-10T07:12:19.607Z,11.40
2019-05-10T07:14:49.409Z,11.40
2019-05-10T07:17:19.265Z,11.30
2019-05-10T07:19:53.521Z,11.30
2019-05-10T07:22:26.714Z,11.20
2019-05-10T07:24:57.037Z,11.20
2019-05-10T07:27:24.616Z,11.20
2019-05-10T07:29:54.439Z,11.20
2019-05-10T07:32:24.772Z,11.10
2019-05-10T07:35:00.456Z,11.10
2019-05-10T07:37:27.302Z,11.10
2019-05-10T07:39:57.162Z,11.10
2019-05-10T07:42:26.952Z,11.10
2019-05-10T07:44:56.730Z,11.10
2019-05-10T07:47:30.562Z,11.20
2019-05-10T07:49:58.016Z,11.20
2019-05-10T07:52:27.816Z,11.20
2019-05-10T07:54:57.607Z,11.20
2019-05-10T07:57:27.394Z,11.20
2019-05-10T07:59:57.676Z,11.10
2019-05-10T08:02:28.700Z,11.10
2019-05-10T08:04:58.605Z,11.00
2019-05-10T08:07:29.411Z,10.90
2019-05-10T08:09:59.557Z,10.90
2019-05-10T08:12:29.403Z,10.90
2019-05-10T08:14:59.176Z,10.80
2019-05-10T08:17:28.975Z,10.90
2019-05-10T08:19:58.752Z,10.90
2019-05-10T08:22:32.863Z,11.10
2019-05-10T08:25:02.230Z,11.10
2019-05-10T08:27:32.424Z,11.20
2019-05-10T08:30:20.257Z,11.40
2019-05-10T08:32:35.166Z,11.40
2019-05-10T08:35:16.465Z,11.40
2019-05-10T08:37:38.961Z,11.50
2019-05-10T08:40:08.899Z,11.50
2019-05-10T08:42:45.290Z,11.40
2019-05-10T08:45:12.405Z,11.40
2019-05-10T08:47:42.619Z,11.40
2019-05-10T08:50:28.911Z,11.30
2019-05-10T08:52:44.312Z,11.40
2019-05-10T08:55:14.161Z,11.40
2019-05-10T08:57:49.143Z,11.50
2019-05-10T09:00:15.787Z,11.50
2019-05-10T09:02:45.659Z,11.50
2019-05-10T09:05:15.511Z,11.60
2019-05-10T09:07:45.534Z,11.70
2019-05-10T09:10:15.722Z,11.80
2019-05-10T09:12:50.999Z,11.90
2019-05-10T09:15:17.076Z,11.90
2019-05-10T09:17:46.875Z,12.00
2019-05-10T09:20:21.865Z,12.10
2019-05-10T09:22:48.494Z,12.30
2019-05-10T09:25:20.226Z,12.30
2019-05-10T09:27:49.855Z,12.40
2019-05-10T09:30:35.482Z,12.60
2019-05-10T09:33:10.333Z,12.60
2019-05-10T09:35:39.065Z,12.50
2019-05-10T09:38:08.589Z,12.50
2019-05-10T09:40:42.455Z,12.50
2019-05-10T09:43:14.396Z,12.40
2019-05-10T09:45:42.352Z,12.40
2019-05-10T09:48:12.419Z,12.40
2019-05-10T09:50:47.149Z,12.40
2019-05-10T09:53:19.470Z,12.30
2019-05-10T09:55:55.181Z,12.30
2019-05-10T09:58:21.690Z,12.20
2019-05-10T10:00:49.207Z,12.20
2019-05-10T10:03:19.202Z,12.20
2019-05-10T10:05:49.162Z,12.20
2019-05-10T10:08:19.023Z,12.30
2019-05-10T10:10:48.876Z,12.20
2019-05-10T10:13:34.014Z,12.20
2019-05-10T10:15:52.438Z,12.30
2019-05-10T10:18:25.386Z,12.30
2019-05-10T10:20:53.132Z,12.30
2019-05-10T10:23:24.611Z,12.30
2019-05-10T10:25:54.400Z,12.20
2019-05-10T10:28:24.196Z,12.10
2019-05-10T10:31:03.438Z,12.10
2019-05-10T10:33:28.829Z,12.20
2019-05-10T10:36:04.550Z,12.20
2019-05-10T10:38:31.055Z,12.30
2019-05-10T10:40:59.941Z,12.40
2019-05-10T10:43:29.768Z,12.40
2019-05-10T10:45:59.541Z,12.50
2019-05-10T10:48:29.331Z,12.60
2019-05-10T10:50:59.119Z,12.80
2019-05-10T10:53:28.897Z,12.90
2019-05-10T10:56:03.511Z,13.00
2019-05-10T10:58:30.532Z,13.10
2019-05-10T11:01:00.331Z,13.30
2019-05-10T11:03:30.941Z,13.40
2019-05-10T11:06:01.744Z,13.50
2019-05-10T11:08:33.186Z,13.70
2019-05-10T11:11:03.032Z,13.80
2019-05-10T11:13:45.444Z,13.90
2019-05-10T11:16:10.795Z,13.90
2019-05-10T11:18:36.746Z,13.80
2019-05-10T11:21:06.547Z,13.80
2019-05-10T11:23:39.080Z,13.90
2019-05-10T11:26:07.960Z,14.00
2019-05-10T11:28:39.184Z,13.90
2019-05-10T11:31:11.417Z,14.00
2019-05-10T11:33:41.674Z,14.00
2019-05-10T11:36:11.736Z,14.00
2019-05-10T11:38:42.135Z,13.90
2019-05-10T11:41:18.621Z,13.90
2019-05-10T11:43:43.550Z,13.90
2019-05-10T11:46:14.398Z,13.80
2019-05-10T11:48:44.184Z,13.80
2019-05-10T11:51:17.312Z,13.70
2019-05-10T11:53:49.001Z,13.80
2019-05-10T11:56:16.928Z,14.00
2019-05-10T11:58:55.044Z,14.20
2019-05-10T12:01:22.248Z,14.40
2019-05-10T12:03:52.188Z,14.60
2019-05-10T12:06:21.972Z,14.80
2019-05-10T12:08:59.902Z,14.90
2019-05-10T12:11:32.485Z,15.10
2019-05-10T12:13:57.441Z,15.20
2019-05-10T12:16:26.260Z,15.40
2019-05-10T12:19:14.951Z,15.40
2019-05-10T12:21:27.924Z,15.50
2019-05-10T12:24:10.478Z,15.50
2019-05-10T12:29:11.502Z,15.80
2019-05-10T12:31:32.165Z,15.90
2019-05-10T12:34:09.318Z,15.90
2019-05-10T12:36:33.447Z,15.80
2019-05-10T12:39:04.782Z,15.60
2019-05-10T12:41:39.990Z,15.70
2019-05-10T12:44:07.485Z,15.80
2019-05-10T12:46:39.761Z,16.00
2019-05-10T12:49:11.774Z,16.10
2019-05-10T12:51:40.889Z,16.20
2019-05-10T12:54:12.063Z,16.30
2019-05-10T12:56:46.214Z,16.30
2019-05-10T12:59:13.342Z,16.40
2019-05-10T13:01:43.108Z,16.30
2019-05-10T13:04:14.639Z,16.20
2019-05-10T13:06:44.392Z,16.20
2019-05-10T13:09:14.191Z,16.30
2019-05-10T13:11:43.962Z,16.40
2019-05-10T13:14:13.800Z,16.40
2019-05-10T13:16:43.567Z,16.40
2019-05-10T13:19:14.198Z,16.50
2019-05-10T13:21:44.854Z,16.60
2019-05-10T13:24:14.715Z,16.80
2019-05-10T13:26:44.576Z,16.90
2019-05-10T13:29:14.364Z,16.90
2019-05-10T13:31:44.511Z,17.10
2019-05-10T13:34:14.421Z,17.30
2019-05-10T13:36:44.216Z,17.50
2019-05-10T13:39:19.169Z,17.60
2019-05-10T13:41:45.480Z,17.50
2019-05-10T13:44:15.249Z,17.70
2019-05-10T13:46:45.062Z,17.60
2019-05-10T13:49:14.836Z,17.50
2019-05-10T13:51:44.651Z,17.50
2019-05-10T13:54:14.419Z,17.70
2019-05-10T13:56:45.370Z,17.90
2019-05-10T13:59:17.910Z,17.70
2019-05-10T14:01:49.754Z,17.50
2019-05-10T14:04:18.744Z,17.50
2019-05-10T14:06:48.543Z,17.50
2019-05-10T14:09:20.928Z,17.50
2019-05-10T14:11:49.811Z,17.70
2019-05-10T14:14:20.568Z,17.90
2019-05-10T14:16:52.157Z,18.00
2019-05-10T14:19:22.906Z,18.20
2019-05-10T14:21:53.216Z,18.30
2019-05-10T14:24:23.067Z,18.30
2019-05-10T14:26:57.312Z,18.30
2019-05-10T14:29:32.871Z,18.40
2019-05-10T14:31:55.861Z,18.50
2019-05-10T14:34:25.627Z,18.60
2019-05-10T14:36:56.506Z,18.50
2019-05-10T14:39:26.283Z,18.30
2019-05-10T14:41:56.093Z,18.00
2019-05-10T14:44:25.875Z,17.90
2019-05-10T14:46:55.675Z,18.00
2019-05-10T14:49:25.463Z,18.10
2019-05-10T14:51:59.722Z,18.10
2019-05-10T14:54:41.581Z,18.10
2019-05-10T14:56:59.319Z,18.00
2019-05-10T14:59:29.107Z,17.90
2019-05-10T15:01:58.923Z,17.70
2019-05-10T15:04:44.650Z,17.60
2019-05-10T15:07:00.211Z,17.50
2019-05-10T15:09:29.987Z,17.50
2019-05-10T15:11:59.819Z,17.60
2019-05-10T15:14:29.599Z,18.00
2019-05-10T15:16:59.391Z,18.40
2019-05-10T15:19:31.526Z,18.50
2019-05-10T15:22:00.671Z,18.40
2019-05-10T15:24:30.467Z,18.50
2019-05-10T15:27:00.271Z,19.00
2019-05-10T15:29:30.054Z,19.90
2019-05-10T15:31:59.845Z,20.80
2019-05-10T15:34:29.696Z,21.60
2019-05-10T15:37:02.454Z,22.10
2019-05-10T15:39:31.015Z,22.60
2019-05-10T15:42:01.057Z,22.90
2019-05-10T15:44:33.837Z,23.10
2019-05-10T15:47:03.589Z,23.10
2019-05-10T15:49:33.402Z,23.10
2019-05-10T15:52:16.926Z,22.90
2019-05-10T15:54:37.982Z,22.70
2019-05-10T15:57:06.289Z,22.40
2019-05-10T15:59:36.167Z,21.80
2019-05-10T16:02:05.939Z,21.50
2019-05-10T16:04:35.737Z,21.40
2019-05-10T16:07:09.296Z,21.30
2019-05-10T16:09:37.037Z,21.30
2019-05-10T16:12:08.651Z,21.20
2019-05-10T16:14:39.238Z,21.20
2019-05-10T16:17:10.372Z,21.00
2019-05-10T16:19:41.353Z,20.90
2019-05-10T16:22:11.155Z,20.80
2019-05-10T16:24:40.941Z,20.80
2019-05-10T16:27:10.740Z,20.70
2019-05-10T16:29:41.408Z,20.50
2019-05-10T16:32:11.303Z,20.30
2019-05-10T16:34:41.087Z,20.00
2019-05-10T16:37:10.871Z,19.70
2019-05-10T16:39:40.662Z,19.40
2019-05-10T16:42:10.527Z,19.10
2019-05-10T16:44:40.311Z,18.80
2019-05-10T16:47:10.115Z,18.60
2019-05-10T16:49:39.892Z,18.40
2019-05-10T16:52:09.758Z,18.30
2019-05-10T16:54:39.535Z,18.00
2019-05-10T16:57:09.329Z,17.80
2019-05-10T16:59:39.122Z,17.70
2019-05-10T17:02:11.850Z,17.50
2019-05-10T17:04:40.431Z,17.40
2019-05-10T17:07:13.088Z,17.30
2019-05-10T17:09:41.717Z,17.10
2019-05-10T17:12:11.517Z,17.00
2019-05-10T17:14:41.291Z,16.90
2019-05-10T17:17:11.111Z,16.70
2019-05-10T17:19:40.891Z,16.60
2019-05-10T17:22:10.695Z,16.50
2019-05-10T17:24:40.495Z,16.30
2019-05-10T17:27:10.256Z,16.20
2019-05-10T17:29:44.663Z,16.10
2019-05-10T17:32:11.530Z,16.00
2019-05-10T17:34:41.337Z,15.90
2019-05-10T17:37:11.194Z,15.80
2019-05-10T17:39:40.987Z,15.70
2019-05-10T17:42:16.205Z,15.60
2019-05-10T17:44:46.106Z,15.50
2019-05-10T17:47:15.894Z,15.50
2019-05-10T17:49:45.684Z,15.40
2019-05-10T17:52:15.454Z,15.40
2019-05-10T17:54:45.243Z,15.30
2019-05-10T17:57:16.780Z,15.20
2019-05-10T17:59:47.069Z,15.10
2019-05-10T18:02:17.992Z,14.90
2019-05-10T18:04:47.806Z,14.90
2019-05-10T18:07:18.361Z,14.80
2019-05-10T18:09:49.229Z,14.80
2019-05-10T18:12:20.385Z,14.70
2019-05-10T18:14:55.627Z,14.70
2019-05-10T18:17:25.833Z,14.60
2019-05-10T18:19:56.751Z,14.50
2019-05-10T18:22:24.929Z,14.40
2019-05-10T18:24:54.724Z,14.40
2019-05-10T18:27:24.503Z,14.30
2019-05-10T18:29:54.304Z,14.20
2019-05-10T18:32:29.220Z,14.20
2019-05-10T18:34:55.571Z,14.10
2019-05-10T18:37:25.362Z,14.10
2019-05-10T18:39:55.143Z,14.00
2019-05-10T18:42:25.998Z,14.00
2019-05-10T18:44:56.443Z,13.90
2019-05-10T18:47:26.322Z,13.80
2019-05-10T18:49:56.177Z,13.70
2019-05-10T18:52:26.001Z,13.70
2019-05-10T18:54:55.816Z,13.60
2019-05-10T18:57:25.780Z,13.60
2019-05-10T18:59:55.581Z,13.60
2019-05-10T19:02:25.383Z,13.60
2019-05-10T19:04:55.183Z,13.60
2019-05-10T19:07:24.975Z,13.50
2019-05-10T19:09:54.767Z,13.50
2019-05-10T19:12:25.077Z,13.50
2019-05-10T19:14:55.247Z,13.50
2019-05-10T19:17:25.137Z,13.40
2019-05-10T19:19:54.941Z,13.40
2019-05-10T19:22:24.719Z,13.40
2019-05-10T19:24:56.938Z,13.40
2019-05-10T19:27:25.985Z,13.30
2019-05-10T19:29:55.772Z,13.30
2019-05-10T19:32:25.545Z,13.20
2019-05-10T19:34:57.773Z,13.20
2019-05-10T19:37:33.378Z,13.20
2019-05-10T19:39:58.315Z,13.10
2019-05-10T19:42:31.423Z,13.10
2019-05-10T19:44:59.635Z,13.10
2019-05-10T19:47:29.415Z,13.10
2019-05-10T19:49:59.216Z,13.00
2019-05-10T19:52:28.985Z,13.00
2019-05-10T19:54:59.671Z,13.00
2019-05-10T19:57:29.469Z,12.90
2019-05-10T19:59:59.320Z,12.90
2019-05-10T20:02:29.091Z,12.90
2019-05-10T20:04:58.895Z,12.90
2019-05-10T20:07:43.297Z,12.90
2019-05-10T20:10:00.172Z,12.90
2019-05-10T20:12:29.947Z,12.90
2019-05-10T20:14:59.756Z,12.90
2019-05-10T20:17:29.549Z,12.90
2019-05-10T20:20:00.798Z,12.90
2019-05-10T20:22:30.589Z,12.80
2019-05-10T20:25:01.479Z,12.80
2019-05-10T20:27:31.346Z,12.80
2019-05-10T20:30:01.175Z,12.80
2019-05-10T20:32:30.970Z,12.70
2019-05-10T20:35:00.751Z,12.70
2019-05-10T20:37:30.537Z,12.70
2019-05-10T20:40:01.433Z,12.70
2019-05-10T20:42:32.367Z,12.70
2019-05-10T20:45:07.410Z,12.70
2019-05-10T20:47:33.763Z,12.70
2019-05-10T20:50:04.305Z,12.70
2019-05-10T20:52:34.097Z,12.70
2019-05-10T20:55:04.952Z,12.70
2019-05-10T20:57:34.753Z,12.70
2019-05-10T21:00:06.479Z,12.70
2019-05-10T21:02:37.859Z,12.60
2019-05-10T21:05:07.792Z,12.60
2019-05-10T21:07:37.597Z,12.60
2019-05-10T21:10:07.863Z,12.60
2019-05-10T21:12:37.627Z,12.60
2019-05-10T21:15:08.001Z,12.60
2019-05-10T21:17:37.791Z,12.60
2019-05-10T21:20:08.061Z,12.60
2019-05-10T21:22:37.907Z,12.50
2019-05-10T21:25:07.863Z,12.50
2019-05-10T21:27:37.717Z,12.50
2019-05-10T21:30:07.952Z,12.50
2019-05-10T21:32:37.740Z,12.50
2019-05-10T21:35:07.779Z,12.50
2019-05-10T21:37:37.561Z,12.50
2019-05-10T21:40:08.884Z,12.50
2019-05-10T21:42:38.679Z,12.50
2019-05-10T21:45:08.740Z,12.50
2019-05-10T21:47:50.706Z,12.50
2019-05-10T21:50:10.270Z,12.50
2019-05-10T21:52:40.113Z,12.50
2019-05-10T21:55:09.911Z,12.50
2019-05-10T21:57:39.698Z,12.50
2019-05-10T22:00:11.406Z,12.50
2019-05-10T22:02:42.862Z,12.50
2019-05-10T22:05:12.751Z,12.50
2019-05-10T22:07:42.548Z,12.40
2019-05-10T22:10:13.391Z,12.50
2019-05-10T22:12:43.185Z,12.40
2019-05-10T22:15:13.016Z,12.40
2019-05-10T22:17:42.811Z,12.50
2019-05-10T22:20:12.690Z,12.50
2019-05-10T22:22:42.476Z,12.50
2019-05-10T22:25:12.437Z,12.50
2019-05-10T22:27:42.222Z,12.50
2019-05-10T22:30:12.688Z,12.50
2019-05-10T22:32:42.627Z,12.50
2019-05-10T22:35:12.747Z,12.50
2019-05-10T22:37:43.620Z,12.50
2019-05-10T22:40:13.763Z,12.50
2019-05-10T22:42:43.666Z,12.50
2019-05-10T22:45:13.630Z,12.50
2019-05-10T22:47:43.417Z,12.40
2019-05-10T22:50:13.336Z,12.40
2019-05-10T22:52:43.147Z,12.40
2019-05-10T22:55:13.015Z,12.40
2019-05-10T22:57:42.817Z,12.40
2019-05-10T23:00:13.616Z,12.40
2019-05-10T23:02:43.407Z,12.40
2019-05-10T23:05:13.255Z,12.40
2019-05-10T23:07:43.050Z,12.40
2019-05-10T23:10:12.965Z,12.40
2019-05-10T23:12:42.758Z,12.40
2019-05-10T23:15:12.881Z,12.40
2019-05-10T23:17:42.680Z,12.40
2019-05-10T23:20:12.601Z,12.40
2019-05-10T23:22:42.404Z,12.40
2019-05-10T23:25:12.330Z,12.40
2019-05-10T23:27:42.144Z,12.30
2019-05-10T23:30:12.978Z,12.30
2019-05-10T23:32:42.768Z,12.30
2019-05-10T23:35:12.636Z,12.20
2019-05-10T23:37:42.505Z,12.20
2019-05-10T23:40:12.524Z,12.10
2019-05-10T23:42:42.304Z,12.10
2019-05-10T23:45:13.476Z,12.10
2019-05-10T23:47:43.264Z,12.10
2019-05-10T23:50:13.154Z,12.10
2019-05-10T23:52:42.928Z,12.10
2019-05-10T23:55:12.800Z,12.10
2019-05-10T23:57:42.578Z,12.10
